^^
Saratoga-Weather Station Historical Data
Daily Summary for April 21, 2021 Units:  English    Metric   Both
Daily Weekly Monthly Yearly Custom
  High: Low: Average:
Temperature: 36.5 °F 32 °F 30.6 °F
Dew Point: 30 °F 32 °F 27.1 °F
Humidity: 91% % 85%
Wind Speed: 4mph 0mph 0.3mph
Wind Gust: 6mph - -
Wind- - SSE
Pressure: 30.3 in 0 in -
Precipitation: 0 in    
Historical Graphs
 
 
Tabular Data for April 21, 2021
Time Temperature Dew Point Pressure Wind Wind Speed Wind Gust Humidity Rainfall Rate (Hourly) solar
00:03 29.8 °F 27.3 °F 30.3 in Calm     90% 0 in 0 W/m2
00:08 29.8 °F 27.3 °F 30.3 in Calm   1 mph 90% 0 in 0 W/m2
00:13 29.8 °F 27.3 °F 30.3 in Calm   1 mph 90% 0 in 0 W/m2
00:18 29.8 °F 27.3 °F 30.3 in Calm   1 mph 90% 0 in 0 W/m2
00:23 29.8 °F 27.3 °F 30.3 in Calm   1 mph 90% 0 in 0 W/m2
00:28 29.8 °F 27.3 °F 30.3 in Calm   1 mph 90% 0 in 0 W/m2
00:33 30 °F 27.5 °F 30.3 in Calm     90% 0 in 0 W/m2
00:38 30 °F 27.5 °F 30.3 in Calm     90% 0 in 0 W/m2
00:43 29.8 °F 27.3 °F 30.3 in Calm     90% 0 in 0 W/m2
00:48 29.7 °F 27.1 °F 30.3 in Calm     90% 0 in 0 W/m2
00:53 29.7 °F 27.1 °F 30.3 in Calm     90% 0 in 0 W/m2
00:58 29.5 °F 27 °F 30.3 in Calm     90% 0 in 0 W/m2
01:03 29.5 °F 27 °F 30.3 in Calm     90% 0 in 0 W/m2
01:08 29.1 °F 26.6 °F 30.3 in Calm     90% 0 in 0 W/m2
01:13 29.1 °F 26.6 °F 30.3 in Calm     90% 0 in 0 W/m2
01:18 29.1 °F 26.8 °F 30.3 in Calm     91% 0 in 0 W/m2
01:23 28.9 °F 26.6 °F 30.3 in Calm     91% 0 in 0 W/m2
01:28 28.9 °F 26.6 °F 30.3 in Calm     91% 0 in 0 W/m2
01:33 28.9 °F 26.6 °F 30.3 in Calm     91% 0 in 0 W/m2
01:38 28.9 °F 26.6 °F 30.3 in Calm   1 mph 91% 0 in 0 W/m2
01:43 29.1 °F 26.8 °F 30.3 in Calm     91% 0 in 0 W/m2
01:48 29.1 °F 26.8 °F 30.3 in Calm     91% 0 in 0 W/m2
01:53 29.1 °F 26.8 °F 30.3 in Calm   2 mph 91% 0 in 0 W/m2
01:58 29.3 °F 27 °F 30.3 in Calm     91% 0 in 0 W/m2
02:03 29.5 °F 27.1 °F 30.3 in Calm   2 mph 91% 0 in 0 W/m2
02:08 29.7 °F 27.3 °F 30.3 in North 2 mph 3 mph 91% 0 in 0 W/m2
02:13 29.8 °F 27.5 °F 30.3 in Calm   2 mph 91% 0 in 0 W/m2
02:18 30.2 °F 27.7 °F 30.3 in Calm     90% 0 in 0 W/m2
02:23 30.2 °F 27.7 °F 30.3 in Calm   2 mph 90% 0 in 0 W/m2
02:28 30.2 °F 27.3 °F 30.3 in Calm     89% 0 in 0 W/m2
02:33 30.2 °F 27.3 °F 30.3 in Calm   1 mph 89% 0 in 0 W/m2
02:38 30 °F 27.1 °F 30.3 in Calm     89% 0 in 0 W/m2
02:43 29.8 °F 26.8 °F 30.3 in Calm     88% 0 in 0 W/m2
02:48 29.5 °F 26.6 °F 30.3 in Calm   1 mph 89% 0 in 0 W/m2
03:07 29.3 °F 26.8 °F 30.3 in Calm     90% 0 in 0 W/m2
03:12 29.3 °F 26.8 °F 30.3 in Calm     90% 0 in 0 W/m2
03:17 29.5 °F 27 °F 30.3 in Calm   2 mph 90% 0 in 0 W/m2
03:23 29.7 °F 27.1 °F 30.3 in Calm   1 mph 90% 0 in 0 W/m2
03:28 29.8 °F 27.3 °F 30.3 in Calm   1 mph 90% 0 in 0 W/m2
03:33 30 °F 27.5 °F 30.3 in Calm   1 mph 90% 0 in 0 W/m2
03:38 30 °F 27.5 °F 30.3 in Calm   2 mph 90% 0 in 0 W/m2
03:43 30 °F 27.1 °F 30.2 in ENE 0.9 mph 1 mph 89% 0 in 0 W/m2
03:48 30 °F 27.1 °F 30.2 in Calm   2 mph 89% 0 in 0 W/m2
03:53 30 °F 27.1 °F 30.2 in Calm   1 mph 89% 0 in 0 W/m2
03:58 30 °F 27 °F 30.2 in Calm   2 mph 88% 0 in 0 W/m2
04:03 30 °F 27 °F 30.2 in Calm     88% 0 in 0 W/m2
04:08 30 °F 27 °F 30.3 in Calm     88% 0 in 0 W/m2
04:13 30 °F 27 °F 30.2 in West 0.9 mph 2 mph 88% 0 in 0 W/m2
04:18 29.8 °F 26.8 °F 30.3 in Calm   1 mph 88% 0 in 0 W/m2
04:23 30 °F 27 °F 30.2 in North 0.9 mph 1 mph 88% 0 in 0 W/m2
04:28 30 °F 27 °F 30.2 in Calm   2 mph 88% 0 in 0 W/m2
04:33 30 °F 26.6 °F 30.2 in Calm     87% 0 in 0 W/m2
04:38 30 °F 26.6 °F 30.2 in West 0.9 mph 2 mph 87% 0 in 0 W/m2
04:43 30 °F 26.6 °F 30.2 in Calm   1 mph 87% 0 in 0 W/m2
04:48 29.8 °F 26.4 °F 30.2 in West 0.9 mph 2 mph 87% 0 in 0 W/m2
04:53 29.8 °F 26.4 °F 30.2 in Calm   1 mph 87% 0 in 0 W/m2
04:58 29.7 °F 26.2 °F 30.2 in Calm     87% 0 in 0 W/m2
05:03 29.5 °F 26.1 °F 30.2 in Calm     87% 0 in 0 W/m2
05:08 29.3 °F 26.2 °F 30.2 in Calm   1 mph 88% 0 in 0 W/m2
05:13 29.1 °F 26.1 °F 30.2 in Calm   1 mph 88% 0 in 0 W/m2
05:18 28.9 °F 25.9 °F 30.2 in Calm     88% 0 in 0 W/m2
05:23 28.8 °F 25.7 °F 30.2 in Calm   2 mph 88% 0 in 0 W/m2
05:28 28.8 °F 25.7 °F 30.2 in South 0.9 mph 1 mph 88% 0 in 0 W/m2
05:33 28.8 °F 25.7 °F 30.2 in West 0.9 mph 2 mph 88% 0 in 0 W/m2
05:38 28.8 °F 25.7 °F 30.2 in Calm     88% 0 in 0 W/m2
05:43 28.8 °F 25.7 °F 30.2 in Calm   1 mph 88% 0 in 0 W/m2
05:48 28.8 °F 25.7 °F 30.2 in Calm     88% 0 in 0 W/m2
05:53 28.6 °F 25.5 °F 30.2 in West 0.9 mph 1 mph 88% 0 in 0 W/m2
05:58 28.6 °F 25.5 °F 30.2 in Calm   1 mph 88% 0 in 0 W/m2
06:03 28.4 °F 25.5 °F 30.2 in Calm   1 mph 89% 0 in 0 W/m2
06:08 28.4 °F 25.5 °F 30.2 in Calm     89% 0 in 0 W/m2
06:13 28.4 °F 25.5 °F 30.2 in Calm   2 mph 89% 0 in 0 W/m2
06:18 28.6 °F 25.7 °F 30.2 in West 0.9 mph 1 mph 89% 0 in 0 W/m2
06:23 28.6 °F 25.7 °F 30.2 in Calm   2 mph 89% 0 in 0 W/m2
06:28 28.4 °F 25.3 °F 30.2 in Calm   1 mph 88% 0 in 0 W/m2
06:33 28.4 °F 25.3 °F 30.2 in Calm     88% 0 in 0 W/m2
06:38 28.4 °F 25.5 °F 30.2 in Calm     89% 0 in 0 W/m2
06:44 28.2 °F 25.2 °F 30.2 in Calm     88% 0 in 0 W/m2
06:49 28 °F 25 °F 30.2 in Calm     88% 0 in 0 W/m2
06:54 27.9 °F 24.8 °F 30.2 in Calm     88% 0 in 0 W/m2
06:59 27.7 °F 24.8 °F 30.2 in Calm   1 mph 89% 0 in 0 W/m2
07:04 27.5 °F 24.6 °F 30.2 in Calm     89% 0 in 0 W/m2
07:09 27.3 °F 24.4 °F 30.2 in Calm     89% 0 in 0 W/m2
07:14 27.1 °F 24.3 °F 30.2 in WSW 0.9 mph 1 mph 89% 0 in 0 W/m2
07:19 27.1 °F 24.6 °F 30.2 in Calm     90% 0 in 0 W/m2
07:24 27.1 °F 24.6 °F 30.2 in Calm     90% 0 in 0 W/m2
07:29 27.1 °F 24.6 °F 30.2 in Calm     90% 0 in 0 W/m2
07:34 27.1 °F 24.6 °F 30.2 in Calm     90% 0 in 0 W/m2
07:39 27.1 °F 24.6 °F 30.2 in Calm     90% 0 in 0 W/m2
07:59 27 °F 24.4 °F 30.2 in Calm     90% 0 in 0 W/m2
08:04 27 °F 24.4 °F 30.2 in Calm     90% 0 in 0 W/m2
08:09 27 °F 24.4 °F 30.2 in Calm     90% 0 in 0 W/m2
08:14 27 °F 24.6 °F 30.2 in Calm     91% 0 in 0 W/m2
08:19 27.1 °F 24.8 °F 30.2 in Calm     91% 0 in 0 W/m2
08:24 27.1 °F 24.6 °F 30.2 in Calm     90% 0 in 0 W/m2
08:29 27.1 °F 24.6 °F 30.2 in Calm     90% 0 in 0 W/m2
08:34 27.1 °F 24.6 °F 30.2 in Calm     90% 0 in 5 W/m2
08:39 27.1 °F 24.6 °F 30.3 in Calm     90% 0 in 7 W/m2
08:44 27.1 °F 24.6 °F 30.3 in Calm     90% 0 in 7 W/m2
08:49 27.1 °F 24.6 °F 30.2 in Calm     90% 0 in 7 W/m2
08:54 27.1 °F 24.6 °F 30.3 in Calm     90% 0 in 7 W/m2
08:59 27.1 °F 24.6 °F 30.3 in Calm     90% 0 in 7 W/m2
09:04 32 °F 32 °F 0 in Calm     % 0 in W/m2
09:09 27 °F 24.4 °F 30.3 in Calm     90% 0 in 12 W/m2
09:14 27 °F 24.4 °F 30.3 in Calm   1 mph 90% 0 in 12 W/m2
09:19 27 °F 24.4 °F 30.3 in Calm     90% 0 in 14 W/m2
09:24 27 °F 24.6 °F 30.3 in Calm   1 mph 91% 0 in 14 W/m2
09:30 27 °F 24.6 °F 30.3 in Calm     91% 0 in 16 W/m2
09:35 27 °F 24.6 °F 30.3 in Calm     91% 0 in 16 W/m2
09:40 27.1 °F 24.8 °F 30.3 in Calm   1 mph 91% 0 in 16 W/m2
09:45 27.1 °F 24.8 °F 30.3 in Calm   2 mph 91% 0 in 16 W/m2
09:50 27.5 °F 25.2 °F 30.3 in Calm     91% 0 in 18 W/m2
09:55 27.7 °F 25.3 °F 30.3 in Calm   2 mph 91% 0 in 18 W/m2
10:00 27.9 °F 25.3 °F 30.3 in Calm   1 mph 90% 0 in 18 W/m2
10:05 28 °F 25.5 °F 30.3 in Calm   1 mph 90% 0 in 19 W/m2
10:10 28.2 °F 25.7 °F 30.3 in Calm   1 mph 90% 0 in 19 W/m2
10:15 28.6 °F 26.1 °F 30.3 in Calm   1 mph 90% 0 in 28 W/m2
10:20 28.8 °F 25.9 °F 30.3 in Calm   1 mph 89% 0 in 21 W/m2
10:25 28.9 °F 26.1 °F 30.3 in Calm     89% 0 in 19 W/m2
10:30 28.9 °F 26.1 °F 30.3 in West 2 mph 2 mph 89% 0 in 23 W/m2
10:35 29.1 °F 26.2 °F 30.3 in NNW 2 mph 2 mph 89% 0 in 25 W/m2
10:40 29.5 °F 26.4 °F 30.3 in West 2.9 mph 4 mph 88% 0 in 21 W/m2
10:45 29.8 °F 26.8 °F 30.3 in NW 0.9 mph 2 mph 88% 0 in 21 W/m2
10:50 30 °F 27 °F 30.3 in Calm   4 mph 88% 0 in 21 W/m2
10:55 30.2 °F 26.8 °F 30.3 in WNW 0.9 mph 3 mph 87% 0 in 21 W/m2
11:00 30.4 °F 27 °F 30.3 in Calm   1 mph 87% 0 in 21 W/m2
11:05 30.6 °F 27.1 °F 30.3 in Calm   1 mph 87% 0 in 23 W/m2
11:10 30.7 °F 27.3 °F 30.3 in Calm   2 mph 87% 0 in 21 W/m2
11:15 30.9 °F 27.5 °F 30.3 in Calm   1 mph 87% 0 in 21 W/m2
11:20 31.1 °F 27.3 °F 30.3 in Calm   1 mph 86% 0 in 21 W/m2
11:25 31.3 °F 27.5 °F 30.3 in Calm   1 mph 86% 0 in 21 W/m2
11:30 31.5 °F 27.7 °F 30.3 in Calm   2 mph 86% 0 in 21 W/m2
11:35 31.6 °F 27.9 °F 30.3 in Calm   4 mph 86% 0 in 21 W/m2
11:40 31.8 °F 27.9 °F 30.3 in NW 0.9 mph 1 mph 85% 0 in 28 W/m2
11:45 32.2 °F 28.2 °F 30.3 in ENE 2 mph 6 mph 85% 0 in 23 W/m2
11:50 32.4 °F 28.4 °F 30.3 in Calm   1 mph 85% 0 in 26 W/m2
11:55 32.5 °F 28.6 °F 30.3 in ENE 0.9 mph 1 mph 85% 0 in 23 W/m2
12:00 32.5 °F 28.2 °F 30.2 in Calm   2 mph 84% 0 in 23 W/m2
12:16 33.3 °F 28.9 °F 30.2 in East 2 mph 4 mph 84% 0 in 23 W/m2
12:21 33.4 °F 28.8 °F 30.2 in SE 2 mph 4 mph 83% 0 in 23 W/m2
12:26 34 °F 29.3 °F 30.2 in East 2 mph 5 mph 83% 0 in 23 W/m2
12:31 34.2 °F 29.3 °F 30.2 in East 0.9 mph 6 mph 82% 0 in 23 W/m2
12:36 34.3 °F 29.5 °F 30.2 in ENE 2.9 mph 4 mph 82% 0 in 23 W/m2
12:41 34.3 °F 29.1 °F 30.2 in Calm   4 mph 81% 0 in 23 W/m2
12:46 34.5 °F 29.3 °F 30.2 in East 2 mph 2 mph 81% 0 in 23 W/m2
12:51 34.5 °F 29.3 °F 30.2 in Calm   1 mph 81% 0 in 21 W/m2
12:56 34.7 °F 29.5 °F 30.2 in NE 2.9 mph 6 mph 81% 0 in 21 W/m2
13:01 34.9 °F 29.7 °F 30.2 in Calm   2 mph 81% 0 in 21 W/m2
13:06 35.1 °F 29.5 °F 30.2 in West 0.9 mph 6 mph 80% 0 in 21 W/m2
13:11 35.1 °F 29.5 °F 30.2 in ENE 0.9 mph 3 mph 80% 0 in 21 W/m2
13:16 35.1 °F 29.5 °F 30.2 in East 0.9 mph 4 mph 80% 0 in 21 W/m2
13:21 35.2 °F 29.7 °F 30.2 in Calm   1 mph 80% 0 in 21 W/m2
13:26 35.2 °F 29.7 °F 30.2 in WNW 0.9 mph 2 mph 80% 0 in 21 W/m2
13:31 35.2 °F 29.7 °F 30.2 in ENE 2 mph 3 mph 80% 0 in 21 W/m2
13:36 35.2 °F 29.7 °F 30.2 in ESE 4 mph 4 mph 80% 0 in 21 W/m2
13:41 35.4 °F 29.8 °F 30.2 in Calm   3 mph 80% 0 in 21 W/m2
13:46 35.8 °F 29.8 °F 30.2 in ENE 0.9 mph 2 mph 79% 0 in 21 W/m2
13:51 35.8 °F 29.8 °F 30.2 in East 2.9 mph 6 mph 79% 0 in 21 W/m2
13:56 36 °F 30 °F 30.2 in ENE 0.9 mph 1 mph 79% 0 in 21 W/m2
14:01 36 °F 29.8 °F 30.2 in East 0.9 mph 5 mph 78% 0 in 19 W/m2
14:06 36 °F 29.8 °F 30.2 in Calm   3 mph 78% 0 in 19 W/m2
14:12 36 °F 29.8 °F 30.2 in Calm   3 mph 78% 0 in 19 W/m2
14:17 36 °F 30 °F 30.2 in Calm   2 mph 79% 0 in 19 W/m2
14:22 36 °F 29.8 °F 30.2 in Calm   2 mph 78% 0 in 19 W/m2
14:27 36.1 °F 30 °F 30.2 in ESE 0.9 mph 2 mph 78% 0 in 19 W/m2
14:32 36.1 °F 30 °F 30.2 in Calm   2 mph 78% 0 in 19 W/m2
14:52 36.1 °F 30 °F 30.2 in SE 0.9 mph 3 mph 78% 0 in 18 W/m2
14:57 36.1 °F 30 °F 30.2 in East 2.9 mph 3 mph 78% 0 in 18 W/m2
15:02 36.3 °F 29.8 °F 30.2 in NNE 0.9 mph 3 mph 77% 0 in 18 W/m2
15:07 36.5 °F 30 °F 30.2 in East 0.9 mph 3 mph 77% 0 in 18 W/m2
15:12 36.5 °F 30 °F 30.2 in Calm     77% 0 in 16 W/m2
15:17 36.5 °F 30 °F 30.2 in Calm   3 mph 77% 0 in 16 W/m2
15:32 36.3 °F 29.8 °F 30.2 in Calm   1 mph 77% 0 in 16 W/m2
15:37 36.3 °F 29.8 °F 30.2 in East 0.9 mph 4 mph 77% 0 in 14 W/m2
15:42 36.1 °F 29.7 °F 30.2 in Calm   2 mph 77% 0 in 14 W/m2
15:47 36.1 °F 30 °F 30.2 in Calm     78% 0 in 14 W/m2
15:52 36 °F 29.8 °F 30.2 in Calm     78% 0 in 12 W/m2
15:57 35.6 °F 29.7 °F 30.2 in Calm     79% 0 in 12 W/m2
16:02 35.4 °F 29.5 °F 30.2 in Calm     79% 0 in 12 W/m2
16:08 35.2 °F 29.3 °F 30.2 in Calm     79% 0 in 11 W/m2
16:13 35.1 °F 29.1 °F 30.2 in NNE 0.9 mph 2 mph 79% 0 in 11 W/m2
16:18 35.1 °F 29.1 °F 30.2 in Calm   1 mph 79% 0 in 9 W/m2
16:23 35.2 °F 29.3 °F 30.2 in Calm     79% 0 in 7 W/m2
16:28 35.1 °F 29.1 °F 30.2 in Calm     79% 0 in 7 W/m2
16:39 32 °F 32 °F 0 in Calm     % 0 in W/m2
16:50 32 °F 32 °F 0 in Calm     % 0 in W/m2
17:05 34 °F 29.1 °F 30.2 in Calm     82% 0 in 0 W/m2
17:10 34 °F 29.1 °F 30.2 in Calm   1 mph 82% 0 in 0 W/m2
18:17 30.7 °F 27.3 °F 30.2 in Calm   1 mph 87% 0 in 0 W/m2
18:22 30.7 °F 27.7 °F 30.2 in West 0.9 mph 2 mph 88% 0 in 0 W/m2
21:11 28.6 °F 25.7 °F 30.3 in Calm     89% 0 in 0 W/m2
21:16 28.8 °F 25.9 °F 30.3 in WSW 0.9 mph 1 mph 89% 0 in 0 W/m2
22:31 27.9 °F 25.5 °F 30.3 in Calm     91% 0 in 0 W/m2
22:36 27.7 °F 25.3 °F 30.3 in Calm   1 mph 91% 0 in 0 W/m2
Juneau County Weather
Compliments of Weather Underground - 2 mb